createdAt,value
2023-12-15T00:00:54.697Z,69.40
2023-12-15T00:03:24.236Z,69.40
2023-12-15T00:05:52.471Z,69.30
2023-12-15T00:08:20.628Z,69.30
2023-12-15T00:10:48.840Z,69.40
2023-12-15T00:13:17.009Z,69.40
2023-12-15T00:15:45.255Z,69.40
2023-12-15T00:18:13.501Z,69.50
2023-12-15T00:20:43.107Z,69.40
2023-12-15T00:23:11.276Z,69.40
2023-12-15T00:25:39.381Z,69.40
2023-12-15T00:28:07.527Z,69.40
2023-12-15T00:30:35.796Z,69.20
2023-12-15T00:33:03.995Z,69.30
2023-12-15T00:35:32.172Z,69.30
2023-12-15T00:38:01.677Z,69.30
2023-12-15T00:40:29.819Z,69.30
2023-12-15T00:42:57.901Z,69.30
2023-12-15T00:45:26.000Z,69.30
2023-12-15T00:47:53.321Z,69.30
2023-12-15T00:50:21.525Z,69.30
2023-12-15T00:52:49.643Z,69.30
2023-12-15T00:55:19.100Z,69.20
2023-12-15T00:57:47.208Z,69.20
2023-12-15T01:00:16.157Z,69.10
2023-12-15T01:02:44.253Z,69.10
2023-12-15T01:05:12.910Z,69.10
2023-12-15T01:07:41.118Z,69.10
2023-12-15T01:10:09.653Z,68.90
2023-12-15T01:12:39.228Z,69.10
2023-12-15T01:15:08.390Z,69.10
2023-12-15T01:17:36.860Z,68.90
2023-12-15T01:20:05.890Z,69.00
2023-12-15T01:22:34.124Z,69.00
2023-12-15T01:25:02.243Z,69.00
2023-12-15T01:27:30.445Z,69.00
2023-12-15T01:29:59.875Z,69.00
2023-12-15T01:32:28.092Z,69.00
2023-12-15T01:34:56.282Z,69.00
2023-12-15T01:37:24.380Z,69.00
2023-12-15T01:39:53.119Z,68.90
2023-12-15T01:42:21.254Z,69.00
2023-12-15T01:44:49.535Z,68.90
2023-12-15T01:47:19.584Z,69.00
2023-12-15T01:49:48.581Z,69.00
2023-12-15T01:52:16.686Z,69.00
2023-12-15T01:54:44.808Z,68.90
2023-12-15T01:57:13.284Z,68.90
2023-12-15T01:59:45.295Z,68.90
2023-12-15T02:02:13.653Z,68.90
2023-12-15T02:04:43.349Z,68.80
2023-12-15T02:07:11.660Z,69.00
2023-12-15T02:09:40.694Z,68.90
2023-12-15T02:12:09.191Z,68.80
2023-12-15T02:14:37.274Z,69.00
2023-12-15T02:17:05.761Z,68.70
2023-12-15T02:19:33.923Z,68.80
2023-12-15T02:22:03.386Z,69.20
2023-12-15T02:24:32.973Z,68.80
2023-12-15T02:27:01.062Z,68.80
2023-12-15T02:29:29.222Z,68.80
2023-12-15T02:31:57.483Z,68.70
2023-12-15T02:34:28.486Z,68.70
2023-12-15T02:36:56.645Z,68.60
2023-12-15T02:39:24.707Z,68.70
2023-12-15T02:41:54.170Z,68.70
2023-12-15T02:44:22.272Z,68.80
2023-12-15T02:46:50.328Z,68.80
2023-12-15T02:49:19.773Z,68.90
2023-12-15T02:51:47.936Z,68.90
2023-12-15T02:54:16.015Z,68.90
2023-12-15T02:56:44.155Z,69.00
2023-12-15T02:59:13.854Z,68.80
2023-12-15T03:01:41.937Z,68.90
2023-12-15T03:04:10.046Z,68.90
2023-12-15T03:06:38.170Z,68.80
2023-12-15T03:09:06.265Z,68.90
2023-12-15T03:11:34.669Z,68.80
2023-12-15T03:14:02.893Z,68.90
2023-12-15T03:16:32.335Z,68.80
2023-12-15T03:19:00.462Z,68.80
2023-12-15T03:21:28.562Z,68.80
2023-12-15T03:23:56.839Z,68.80
2023-12-15T03:26:25.020Z,68.80
2023-12-15T03:28:53.173Z,68.70
2023-12-15T03:31:21.294Z,68.80
2023-12-15T03:33:50.780Z,68.70
2023-12-15T03:36:18.912Z,68.80
2023-12-15T03:38:47.011Z,68.70
2023-12-15T03:41:15.262Z,68.70
2023-12-15T03:43:43.343Z,68.70
2023-12-15T03:46:11.432Z,68.70
2023-12-15T03:48:39.571Z,68.70
2023-12-15T03:51:09.684Z,68.70
2023-12-15T03:53:37.864Z,68.80
2023-12-15T03:56:07.026Z,68.70
2023-12-15T03:58:35.245Z,68.70
2023-12-15T04:01:03.429Z,68.70
2023-12-15T04:03:31.585Z,68.60
2023-12-15T04:06:01.609Z,68.60
2023-12-15T04:08:31.270Z,68.50
2023-12-15T04:10:59.445Z,68.50
2023-12-15T04:13:27.841Z,68.50
2023-12-15T04:15:58.560Z,69.20
2023-12-15T04:18:28.178Z,68.50
2023-12-15T04:20:56.395Z,68.40
2023-12-15T04:23:24.529Z,68.50
2023-12-15T04:25:54.185Z,68.50
2023-12-15T04:28:22.289Z,68.50
2023-12-15T04:30:50.390Z,68.40
2023-12-15T04:33:18.551Z,68.50
2023-12-15T04:35:46.727Z,68.50
2023-12-15T04:38:14.803Z,68.50
2023-12-15T04:40:43.363Z,68.50
2023-12-15T04:43:12.950Z,68.50
2023-12-15T04:45:41.232Z,68.50
2023-12-15T04:48:09.463Z,68.50
2023-12-15T04:50:37.685Z,68.50
2023-12-15T04:53:06.458Z,68.30
2023-12-15T04:55:34.880Z,68.50
2023-12-15T04:58:02.990Z,68.40
2023-12-15T05:00:32.523Z,68.40
2023-12-15T05:03:00.849Z,68.40
2023-12-15T05:05:29.024Z,68.40
2023-12-15T05:07:57.283Z,68.40
2023-12-15T05:10:25.447Z,68.30
2023-12-15T05:12:53.555Z,68.40
2023-12-15T05:15:21.785Z,68.30
2023-12-15T05:17:51.970Z,68.30
2023-12-15T05:20:21.553Z,68.10
2023-12-15T05:22:49.841Z,68.10
2023-12-15T05:25:18.226Z,68.20
2023-12-15T05:27:46.295Z,68.10
2023-12-15T05:30:14.906Z,68.20
2023-12-15T05:32:43.193Z,68.20
2023-12-15T05:35:13.051Z,68.20
2023-12-15T05:37:41.280Z,68.10
2023-12-15T05:40:10.638Z,68.10
2023-12-15T05:42:39.071Z,68.10
2023-12-15T05:45:08.022Z,68.10
2023-12-15T05:47:38.165Z,68.00
2023-12-15T05:50:07.926Z,68.00
2023-12-15T05:52:37.456Z,68.10
2023-12-15T05:55:06.071Z,68.20
2023-12-15T05:57:34.434Z,68.10
2023-12-15T06:00:02.634Z,68.10
2023-12-15T06:02:30.723Z,68.10
2023-12-15T06:05:00.121Z,68.20
2023-12-15T06:07:28.889Z,68.20
2023-12-15T06:09:58.356Z,68.20
2023-12-15T06:12:26.446Z,68.20
2023-12-15T06:14:54.551Z,68.20
2023-12-15T06:17:22.778Z,68.20
2023-12-15T06:19:51.015Z,68.30
2023-12-15T06:22:19.136Z,68.30
2023-12-15T06:24:47.204Z,68.20
2023-12-15T06:27:16.683Z,68.30
2023-12-15T06:29:44.757Z,68.30
2023-12-15T06:32:13.746Z,68.30
2023-12-15T06:34:44.381Z,68.40
2023-12-15T06:37:12.590Z,68.50
2023-12-15T06:39:41.029Z,68.40
2023-12-15T06:42:09.179Z,68.40
2023-12-15T06:44:38.929Z,68.30
2023-12-15T06:47:08.013Z,68.30
2023-12-15T06:49:36.266Z,68.40
2023-12-15T06:52:04.645Z,68.30
2023-12-15T06:54:32.822Z,68.40
2023-12-15T06:57:01.034Z,68.40
2023-12-15T06:59:29.154Z,68.40
2023-12-15T07:01:58.647Z,68.40
2023-12-15T07:04:26.836Z,68.40
2023-12-15T07:06:55.032Z,68.50
2023-12-15T07:09:23.255Z,68.40
2023-12-15T07:11:51.378Z,68.50
2023-12-15T07:14:19.469Z,68.50
2023-12-15T07:16:47.550Z,68.40
2023-12-15T07:19:17.277Z,68.50
2023-12-15T07:21:45.370Z,68.40
2023-12-15T07:24:13.557Z,68.50
2023-12-15T07:26:41.692Z,68.50
2023-12-15T07:29:09.853Z,68.50
2023-12-15T07:31:38.224Z,68.60
2023-12-15T07:34:06.380Z,68.50
2023-12-15T07:39:04.310Z,70.50
2023-12-15T07:41:32.416Z,68.70
2023-12-15T07:44:00.666Z,68.60
2023-12-15T07:46:28.812Z,68.60
2023-12-15T07:48:56.315Z,68.60
2023-12-15T07:51:24.617Z,68.60
2023-12-15T07:53:54.121Z,68.60
2023-12-15T07:56:24.320Z,68.60
2023-12-15T07:58:52.991Z,68.70
2023-12-15T08:01:21.470Z,68.70
2023-12-15T08:03:51.234Z,68.70
2023-12-15T08:06:20.509Z,68.90
2023-12-15T08:08:49.944Z,68.70
2023-12-15T08:11:19.409Z,68.80
2023-12-15T08:13:47.714Z,68.70
2023-12-15T08:16:15.975Z,68.90
2023-12-15T08:18:44.861Z,68.50
2023-12-15T08:21:13.647Z,68.50
2023-12-15T08:23:41.851Z,68.40
2023-12-15T08:26:11.265Z,68.30
2023-12-15T08:28:41.311Z,68.30
2023-12-15T08:31:09.981Z,68.30
2023-12-15T08:33:38.940Z,68.30
2023-12-15T08:36:09.524Z,68.40
2023-12-15T08:38:37.948Z,68.40
2023-12-15T08:41:07.195Z,68.50
2023-12-15T08:43:35.541Z,68.30
2023-12-15T08:46:05.610Z,68.30
2023-12-15T08:48:33.846Z,68.30
2023-12-15T08:51:01.984Z,68.30
2023-12-15T08:53:30.107Z,68.30
2023-12-15T08:55:58.252Z,68.20
2023-12-15T08:58:27.185Z,68.10
2023-12-15T09:00:55.298Z,67.80
2023-12-15T09:03:24.965Z,67.60
2023-12-15T09:06:16.342Z,67.50
2023-12-15T09:08:42.049Z,67.50
2023-12-15T09:11:12.499Z,67.60
2023-12-15T09:13:40.633Z,67.60
2023-12-15T09:16:08.984Z,67.80
2023-12-15T09:18:38.524Z,68.00
2023-12-15T09:21:06.872Z,68.10
2023-12-15T09:23:35.027Z,68.30
2023-12-15T09:26:03.165Z,68.30
2023-12-15T09:28:31.456Z,68.10
2023-12-15T09:31:00.024Z,66.60
2023-12-15T09:33:28.210Z,66.20
2023-12-15T09:35:57.777Z,65.90
2023-12-15T09:38:25.898Z,65.80
2023-12-15T09:40:54.060Z,65.40
2023-12-15T09:43:22.448Z,65.20
2023-12-15T09:45:51.265Z,65.20
2023-12-15T09:48:21.113Z,65.00
2023-12-15T09:50:53.600Z,64.70
2023-12-15T09:53:24.091Z,64.70
2023-12-15T09:55:53.350Z,64.70
2023-12-15T09:58:22.061Z,64.70
2023-12-15T10:00:50.345Z,64.80
2023-12-15T10:03:18.463Z,64.80
2023-12-15T10:05:46.660Z,64.70
2023-12-15T10:08:15.344Z,64.50
2023-12-15T10:10:44.973Z,64.60
2023-12-15T10:13:13.106Z,64.70
2023-12-15T10:15:41.331Z,65.00
2023-12-15T10:18:09.599Z,65.50
2023-12-15T10:20:37.931Z,65.50
2023-12-15T10:23:07.462Z,65.30
2023-12-15T10:25:35.792Z,64.90
2023-12-15T10:28:06.955Z,64.40
2023-12-15T10:30:35.059Z,64.40
2023-12-15T10:33:03.341Z,64.90
2023-12-15T10:35:33.449Z,65.10
2023-12-15T10:38:01.598Z,64.60
2023-12-15T10:40:29.948Z,63.90
2023-12-15T10:42:59.566Z,63.50
2023-12-15T10:45:30.127Z,63.00
2023-12-15T10:48:00.530Z,63.00
2023-12-15T10:50:29.831Z,63.30
2023-12-15T10:52:58.622Z,63.10
2023-12-15T10:55:29.910Z,62.60
2023-12-15T10:58:01.911Z,62.30
2023-12-15T11:00:33.704Z,62.30
2023-12-15T11:03:04.007Z,62.30
2023-12-15T11:05:38.313Z,61.50
2023-12-15T11:08:08.757Z,61.90
2023-12-15T11:10:37.309Z,61.80
2023-12-15T11:13:05.787Z,62.00
2023-12-15T11:15:38.666Z,61.60
2023-12-15T11:18:08.544Z,61.40
2023-12-15T11:20:42.495Z,61.10
2023-12-15T11:23:13.339Z,60.90
2023-12-15T11:25:59.549Z,60.60
2023-12-15T11:28:28.531Z,60.60
2023-12-15T11:30:58.096Z,60.50
2023-12-15T11:33:45.214Z,60.30
2023-12-15T11:36:15.575Z,60.10
2023-12-15T11:38:49.208Z,60.50
2023-12-15T11:41:20.759Z,60.50
2023-12-15T11:43:50.493Z,60.30
2023-12-15T11:46:22.251Z,60.20
2023-12-15T11:48:50.709Z,60.00
2023-12-15T11:51:21.817Z,59.90
2023-12-15T11:53:51.332Z,59.70
2023-12-15T11:56:20.358Z,59.70
2023-12-15T11:58:48.587Z,59.90
2023-12-15T12:01:16.992Z,59.90
2023-12-15T12:03:46.849Z,60.20
2023-12-15T12:06:22.240Z,60.30
2023-12-15T12:08:50.702Z,60.20
2023-12-15T12:11:18.873Z,60.60
2023-12-15T12:13:49.689Z,60.60
2023-12-15T12:16:18.700Z,60.30
2023-12-15T12:18:50.273Z,59.60
2023-12-15T12:21:21.008Z,58.80
2023-12-15T12:23:50.782Z,58.20
2023-12-15T12:26:20.049Z,56.30
2023-12-15T12:28:49.952Z,56.70
2023-12-15T12:31:19.189Z,56.00
2023-12-15T12:33:49.130Z,54.10
2023-12-15T12:36:18.359Z,54.20
2023-12-15T12:38:47.714Z,53.40
2023-12-15T12:41:16.624Z,52.50
2023-12-15T12:43:44.819Z,51.80
2023-12-15T12:46:14.383Z,51.10
2023-12-15T12:48:44.703Z,50.40
2023-12-15T12:51:14.357Z,49.50
2023-12-15T12:53:42.500Z,49.00
2023-12-15T12:56:12.108Z,49.00
2023-12-15T12:58:40.769Z,49.00
2023-12-15T13:01:10.004Z,49.20
2023-12-15T13:03:40.186Z,49.30
2023-12-15T13:06:10.205Z,49.40
2023-12-15T13:08:41.492Z,49.80
2023-12-15T13:11:10.192Z,49.90
2023-12-15T13:13:38.299Z,49.80
2023-12-15T13:16:06.679Z,49.50
2023-12-15T13:18:35.066Z,49.50
2023-12-15T13:21:03.488Z,49.40
2023-12-15T13:23:31.735Z,49.60
2023-12-15T13:26:01.459Z,49.60
2023-12-15T13:28:32.879Z,49.80
2023-12-15T13:31:02.193Z,49.90
2023-12-15T13:33:30.560Z,50.10
2023-12-15T13:36:10.264Z,50.30
2023-12-15T13:38:44.028Z,50.40
2023-12-15T13:41:14.445Z,50.50
2023-12-15T13:43:43.977Z,50.50
2023-12-15T13:46:12.174Z,50.60
2023-12-15T13:48:40.922Z,50.80
2023-12-15T13:51:10.268Z,50.90
2023-12-15T13:53:38.555Z,51.10
2023-12-15T13:56:07.265Z,51.20
2023-12-15T13:58:36.787Z,51.40
2023-12-15T14:01:05.531Z,51.40
2023-12-15T14:03:33.788Z,51.40
2023-12-15T14:06:02.814Z,51.50
2023-12-15T14:08:31.063Z,51.50
2023-12-15T14:11:01.800Z,51.60
2023-12-15T14:13:31.984Z,51.60
2023-12-15T14:16:08.489Z,51.70
2023-12-15T14:18:39.402Z,51.90
2023-12-15T14:21:08.256Z,52.10
2023-12-15T14:23:36.333Z,52.10
2023-12-15T14:26:04.878Z,52.10
2023-12-15T14:28:33.869Z,52.20
2023-12-15T14:31:03.500Z,52.20
2023-12-15T14:33:31.906Z,52.30
2023-12-15T14:36:00.260Z,52.30
2023-12-15T14:38:28.430Z,52.40
2023-12-15T14:40:57.988Z,52.60
2023-12-15T14:43:27.135Z,52.70
2023-12-15T14:45:55.295Z,52.90
2023-12-15T14:48:24.885Z,53.10
2023-12-15T14:50:53.565Z,53.20
2023-12-15T14:53:21.660Z,53.20
2023-12-15T14:55:49.772Z,53.30
2023-12-15T14:58:18.442Z,53.40
2023-12-15T15:00:46.769Z,53.40
2023-12-15T15:03:15.643Z,53.60
2023-12-15T15:05:46.164Z,53.70
2023-12-15T15:08:14.935Z,53.80
2023-12-15T15:10:43.460Z,54.00
2023-12-15T15:13:11.532Z,54.10
2023-12-15T15:15:39.597Z,54.20
2023-12-15T15:18:08.114Z,54.30
2023-12-15T15:20:36.690Z,54.40
2023-12-15T15:23:06.298Z,54.50
2023-12-15T15:25:34.444Z,54.60
2023-12-15T15:28:02.512Z,55.30
2023-12-15T15:32:59.275Z,54.40
2023-12-15T15:35:28.886Z,55.00
2023-12-15T15:37:58.681Z,55.10
2023-12-15T15:40:28.221Z,55.20
2023-12-15T15:42:56.540Z,55.30
2023-12-15T15:45:26.135Z,55.40
2023-12-15T15:47:55.507Z,55.50
2023-12-15T15:50:23.748Z,55.60
2023-12-15T15:52:51.905Z,55.70
2023-12-15T15:55:21.148Z,55.80
2023-12-15T15:57:50.708Z,55.80
2023-12-15T16:00:20.928Z,55.90
2023-12-15T16:02:49.505Z,56.00
2023-12-15T16:05:17.928Z,56.10
2023-12-15T16:07:46.196Z,56.10
2023-12-15T16:10:15.506Z,56.10
2023-12-15T16:12:44.453Z,56.40
2023-12-15T16:15:14.138Z,56.40
2023-12-15T16:17:42.545Z,56.50
2023-12-15T16:20:11.816Z,57.50
2023-12-15T16:22:41.230Z,57.50
2023-12-15T16:25:10.213Z,57.60
2023-12-15T16:27:38.973Z,57.60
2023-12-15T16:30:08.876Z,57.80
2023-12-15T16:32:38.810Z,58.00
2023-12-15T16:35:07.899Z,58.00
2023-12-15T16:37:37.243Z,58.00
2023-12-15T16:40:06.289Z,58.10
2023-12-15T16:42:34.458Z,58.20
2023-12-15T16:45:02.692Z,58.20
2023-12-15T16:47:30.826Z,58.30
2023-12-15T16:50:00.475Z,58.30
2023-12-15T16:52:28.675Z,58.50
2023-12-15T16:54:56.790Z,58.50
2023-12-15T16:57:24.931Z,58.60
2023-12-15T16:59:53.037Z,58.70
2023-12-15T17:02:21.153Z,58.80
2023-12-15T17:04:49.242Z,58.90
2023-12-15T17:07:18.970Z,58.90
2023-12-15T17:09:47.116Z,59.00
2023-12-15T17:12:15.248Z,59.00
2023-12-15T17:14:43.347Z,59.00
2023-12-15T17:17:11.464Z,59.10
2023-12-15T17:19:39.751Z,59.10
2023-12-15T17:22:08.029Z,59.20
2023-12-15T17:24:39.867Z,59.20
2023-12-15T17:27:08.702Z,59.20
2023-12-15T17:29:44.377Z,59.30
2023-12-15T17:32:18.669Z,59.30
2023-12-15T17:34:47.008Z,59.40
2023-12-15T17:37:15.397Z,59.40
2023-12-15T17:39:45.096Z,59.50
2023-12-15T17:42:14.098Z,59.50
2023-12-15T17:44:43.036Z,59.60
2023-12-15T17:47:11.238Z,59.50
2023-12-15T17:49:39.562Z,59.60
2023-12-15T17:52:07.883Z,59.70
2023-12-15T17:54:36.021Z,60.40
2023-12-15T17:57:05.974Z,59.70
2023-12-15T17:59:34.172Z,59.80
2023-12-15T18:02:02.504Z,59.80
2023-12-15T18:04:30.763Z,59.80
2023-12-15T18:06:58.981Z,59.90
2023-12-15T18:09:27.129Z,60.00
2023-12-15T18:11:55.273Z,59.90
2023-12-15T18:14:24.752Z,60.00
2023-12-15T18:16:52.817Z,60.00
2023-12-15T18:19:22.943Z,60.10
2023-12-15T18:21:51.140Z,60.10
2023-12-15T18:24:19.488Z,60.10
2023-12-15T18:26:48.127Z,60.20
2023-12-15T18:29:16.399Z,60.10
2023-12-15T18:31:45.998Z,60.20
2023-12-15T18:34:15.007Z,60.30
2023-12-15T18:36:43.152Z,60.40
2023-12-15T18:39:14.095Z,60.40
2023-12-15T18:41:46.091Z,60.40
2023-12-15T18:44:14.180Z,60.50
2023-12-15T18:46:42.799Z,60.50
2023-12-15T18:49:13.301Z,60.40
2023-12-15T18:51:41.806Z,60.60
2023-12-15T18:54:14.474Z,60.70
2023-12-15T18:56:43.589Z,60.70
2023-12-15T18:59:13.064Z,60.60
2023-12-15T19:01:42.487Z,60.70
2023-12-15T19:04:12.488Z,60.80
2023-12-15T19:06:41.390Z,60.80
2023-12-15T19:09:11.809Z,60.90
2023-12-15T19:11:39.957Z,60.80
2023-12-15T19:14:08.160Z,60.80
2023-12-15T19:16:36.302Z,60.90
2023-12-15T19:19:05.406Z,60.80
2023-12-15T19:21:35.033Z,60.90
2023-12-15T19:24:03.411Z,60.90
2023-12-15T19:26:31.501Z,61.00
2023-12-15T19:29:01.414Z,61.10
2023-12-15T19:31:29.991Z,61.10
2023-12-15T19:33:59.087Z,61.10
2023-12-15T19:36:27.475Z,61.10
2023-12-15T19:38:57.045Z,61.20
2023-12-15T19:41:25.253Z,61.30
2023-12-15T19:43:55.245Z,61.20
2023-12-15T19:46:23.495Z,61.30
2023-12-15T19:48:51.941Z,61.40
2023-12-15T19:51:21.062Z,61.40
2023-12-15T19:53:49.653Z,61.40
2023-12-15T19:56:25.815Z,61.40
2023-12-15T19:58:54.272Z,61.40
2023-12-15T20:01:26.446Z,61.50
2023-12-15T20:03:55.150Z,61.50
2023-12-15T20:06:25.863Z,61.50
2023-12-15T20:08:54.006Z,61.50
2023-12-15T20:11:22.506Z,61.50
2023-12-15T20:13:53.525Z,61.60
2023-12-15T20:16:23.949Z,61.60
2023-12-15T20:18:54.170Z,61.70
2023-12-15T20:21:23.531Z,61.60
2023-12-15T20:23:52.808Z,61.60
2023-12-15T20:26:21.607Z,61.70
2023-12-15T20:28:52.779Z,61.80
2023-12-15T20:31:23.720Z,61.80
2023-12-15T20:33:53.716Z,61.90
2023-12-15T20:36:23.613Z,61.90
2023-12-15T20:38:53.966Z,62.00
2023-12-15T20:41:23.982Z,61.90
2023-12-15T20:43:54.488Z,62.00
2023-12-15T20:46:24.590Z,62.00
2023-12-15T20:48:54.069Z,62.00
2023-12-15T20:51:24.686Z,62.00
2023-12-15T20:53:54.311Z,62.10
2023-12-15T20:56:28.028Z,62.10
2023-12-15T20:58:59.905Z,62.10
2023-12-15T21:01:30.171Z,62.00
2023-12-15T21:04:02.536Z,62.10
2023-12-15T21:06:32.899Z,62.10
2023-12-15T21:09:02.630Z,62.20
2023-12-15T21:11:33.101Z,62.20
2023-12-15T21:14:04.407Z,62.30
2023-12-15T21:16:33.585Z,62.30
2023-12-15T21:19:03.746Z,62.20
2023-12-15T21:21:36.371Z,62.20
2023-12-15T21:24:05.834Z,62.40
2023-12-15T21:26:34.862Z,62.30
2023-12-15T21:29:06.165Z,62.20
2023-12-15T21:31:34.723Z,62.30
2023-12-15T21:34:05.361Z,62.30
2023-12-15T21:36:34.785Z,62.40
2023-12-15T21:39:04.174Z,63.20
2023-12-15T21:41:32.456Z,62.30
2023-12-15T21:44:01.400Z,62.30
2023-12-15T21:46:32.309Z,62.30
2023-12-15T21:49:01.777Z,62.40
2023-12-15T21:51:31.745Z,62.50
2023-12-15T21:54:02.351Z,62.50
2023-12-15T21:56:32.630Z,62.50
2023-12-15T21:59:03.365Z,62.40
2023-12-15T22:01:34.993Z,62.40
2023-12-15T22:04:07.656Z,62.40
2023-12-15T22:06:36.475Z,62.50
2023-12-15T22:09:06.351Z,62.40
2023-12-15T22:11:40.138Z,62.90
2023-12-15T22:14:11.119Z,62.50
2023-12-15T22:16:41.674Z,62.50
2023-12-15T22:19:11.601Z,62.50
2023-12-15T22:21:42.884Z,62.50
2023-12-15T22:24:11.606Z,62.60
2023-12-15T22:26:43.058Z,62.60
2023-12-15T22:29:12.592Z,62.70
2023-12-15T22:31:47.617Z,62.60
2023-12-15T22:34:16.641Z,62.60
2023-12-15T22:36:47.106Z,62.70
2023-12-15T22:39:20.841Z,62.70
2023-12-15T22:41:51.927Z,62.60
2023-12-15T22:44:22.882Z,62.70
2023-12-15T22:46:55.675Z,62.70
2023-12-15T22:49:28.362Z,62.80
2023-12-15T22:51:58.342Z,62.70
2023-12-15T22:54:29.475Z,62.70
2023-12-15T22:57:02.343Z,62.80
2023-12-15T22:59:32.802Z,62.80
2023-12-15T23:02:05.751Z,63.50
2023-12-15T23:04:36.272Z,62.80
2023-12-15T23:07:06.240Z,62.80
2023-12-15T23:09:37.550Z,62.80
2023-12-15T23:12:08.812Z,62.80
2023-12-15T23:14:41.170Z,62.90
2023-12-15T23:17:11.151Z,63.00
2023-12-15T23:19:39.482Z,62.90
2023-12-15T23:22:10.448Z,62.90
2023-12-15T23:24:42.761Z,63.00
2023-12-15T23:27:13.230Z,63.00
2023-12-15T23:29:42.325Z,63.00
2023-12-15T23:32:11.880Z,63.00
2023-12-15T23:34:40.439Z,63.10
2023-12-15T23:37:08.626Z,63.10
2023-12-15T23:39:39.690Z,63.10
2023-12-15T23:42:08.841Z,63.00
2023-12-15T23:44:36.936Z,63.00
2023-12-15T23:47:05.427Z,63.80
2023-12-15T23:49:35.725Z,63.10
2023-12-15T23:52:05.129Z,63.10
2023-12-15T23:54:33.217Z,63.10
2023-12-15T23:57:01.352Z,63.00
2023-12-15T23:59:29.605Z,63.10
